sensor_id;sensor_type;location;lat;lon;timestamp;P1;durP1;ratioP1;P2;durP2;ratioP2
12625;SDS011;6378;42.684;23.372;2023-03-14T00:01:23;11.70;;;6.87;;
12625;SDS011;6378;42.684;23.372;2023-03-14T00:03:49;10.87;;;7.07;;
12625;SDS011;6378;42.684;23.372;2023-03-14T00:06:15;8.77;;;6.57;;
12625;SDS011;6378;42.684;23.372;2023-03-14T00:08:42;10.47;;;7.13;;
12625;SDS011;6378;42.684;23.372;2023-03-14T00:11:09;9.23;;;5.67;;
12625;SDS011;6378;42.684;23.372;2023-03-14T00:13:42;12.57;;;6.80;;
12625;SDS011;6378;42.684;23.372;2023-03-14T00:16:09;12.53;;;7.47;;
12625;SDS011;6378;42.684;23.372;2023-03-14T00:18:36;10.50;;;7.17;;
12625;SDS011;6378;42.684;23.372;2023-03-14T00:21:03;10.03;;;6.97;;
12625;SDS011;6378;42.684;23.372;2023-03-14T00:23:29;11.60;;;7.13;;
12625;SDS011;6378;42.684;23.372;2023-03-14T00:26:03;11.57;;;7.23;;
12625;SDS011;6378;42.684;23.372;2023-03-14T00:28:30;7.37;;;5.83;;
12625;SDS011;6378;42.684;23.372;2023-03-14T00:30:56;7.73;;;5.80;;
12625;SDS011;6378;42.684;23.372;2023-03-14T00:33:22;9.80;;;6.43;;
12625;SDS011;6378;42.684;23.372;2023-03-14T00:35:58;9.53;;;6.67;;
12625;SDS011;6378;42.684;23.372;2023-03-14T00:38:26;9.33;;;5.57;;
12625;SDS011;6378;42.684;23.372;2023-03-14T00:40:52;10.93;;;6.77;;
12625;SDS011;6378;42.684;23.372;2023-03-14T00:43:18;9.97;;;6.40;;
12625;SDS011;6378;42.684;23.372;2023-03-14T00:45:47;11.20;;;6.33;;
12625;SDS011;6378;42.684;23.372;2023-03-14T00:48:13;10.47;;;6.60;;
12625;SDS011;6378;42.684;23.372;2023-03-14T00:50:38;10.67;;;6.67;;
12625;SDS011;6378;42.684;23.372;2023-03-14T00:53:04;9.80;;;6.87;;
12625;SDS011;6378;42.684;23.372;2023-03-14T00:55:29;9.23;;;5.97;;
12625;SDS011;6378;42.684;23.372;2023-03-14T00:57:54;10.33;;;5.60;;
12625;SDS011;6378;42.684;23.372;2023-03-14T01:00:20;12.37;;;7.37;;
12625;SDS011;6378;42.684;23.372;2023-03-14T01:02:45;8.67;;;5.90;;
12625;SDS011;6378;42.684;23.372;2023-03-14T01:05:11;7.23;;;5.43;;
12625;SDS011;6378;42.684;23.372;2023-03-14T01:07:37;6.73;;;5.17;;
12625;SDS011;6378;42.684;23.372;2023-03-14T01:10:03;11.30;;;5.67;;
12625;SDS011;6378;42.684;23.372;2023-03-14T01:12:29;7.90;;;5.33;;
12625;SDS011;6378;42.684;23.372;2023-03-14T01:14:55;8.10;;;5.40;;
12625;SDS011;6378;42.684;23.372;2023-03-14T01:17:20;8.73;;;5.50;;
12625;SDS011;6378;42.684;23.372;2023-03-14T01:19:46;6.67;;;5.20;;
12625;SDS011;6378;42.684;23.372;2023-03-14T01:22:12;7.77;;;5.50;;
12625;SDS011;6378;42.684;23.372;2023-03-14T01:24:37;11.27;;;6.60;;
12625;SDS011;6378;42.684;23.372;2023-03-14T01:27:03;10.07;;;5.27;;
12625;SDS011;6378;42.684;23.372;2023-03-14T01:29:28;13.30;;;7.60;;
12625;SDS011;6378;42.684;23.372;2023-03-14T01:31:54;12.43;;;7.80;;
12625;SDS011;6378;42.684;23.372;2023-03-14T01:34:19;10.10;;;6.53;;
12625;SDS011;6378;42.684;23.372;2023-03-14T01:36:45;13.13;;;7.17;;
12625;SDS011;6378;42.684;23.372;2023-03-14T01:39:10;10.50;;;6.47;;
12625;SDS011;6378;42.684;23.372;2023-03-14T01:41:36;10.70;;;6.20;;
12625;SDS011;6378;42.684;23.372;2023-03-14T01:44:01;8.10;;;5.90;;
12625;SDS011;6378;42.684;23.372;2023-03-14T01:46:32;8.63;;;5.63;;
12625;SDS011;6378;42.684;23.372;2023-03-14T01:49:10;9.27;;;5.90;;
12625;SDS011;6378;42.684;23.372;2023-03-14T01:51:44;8.33;;;5.57;;
12625;SDS011;6378;42.684;23.372;2023-03-14T01:56:56;7.43;;;5.80;;
12625;SDS011;6378;42.684;23.372;2023-03-14T01:59:27;11.80;;;6.53;;
12625;SDS011;6378;42.684;23.372;2023-03-14T02:01:55;8.43;;;5.67;;
12625;SDS011;6378;42.684;23.372;2023-03-14T02:04:20;7.97;;;6.17;;
12625;SDS011;6378;42.684;23.372;2023-03-14T02:06:56;10.53;;;6.03;;
12625;SDS011;6378;42.684;23.372;2023-03-14T02:09:29;8.53;;;5.80;;
12625;SDS011;6378;42.684;23.372;2023-03-14T02:11:55;9.13;;;6.10;;
12625;SDS011;6378;42.684;23.372;2023-03-14T02:14:29;7.60;;;5.73;;
12625;SDS011;6378;42.684;23.372;2023-03-14T02:16:57;8.17;;;5.63;;
12625;SDS011;6378;42.684;23.372;2023-03-14T02:19:26;8.63;;;5.70;;
12625;SDS011;6378;42.684;23.372;2023-03-14T02:22:10;11.07;;;7.60;;
12625;SDS011;6378;42.684;23.372;2023-03-14T02:24:40;11.47;;;7.90;;
12625;SDS011;6378;42.684;23.372;2023-03-14T02:27:16;11.60;;;8.97;;
12625;SDS011;6378;42.684;23.372;2023-03-14T02:29:54;13.83;;;8.93;;
12625;SDS011;6378;42.684;23.372;2023-03-14T02:32:30;16.87;;;8.57;;
12625;SDS011;6378;42.684;23.372;2023-03-14T02:34:59;12.27;;;8.00;;
12625;SDS011;6378;42.684;23.372;2023-03-14T02:37:31;13.03;;;8.40;;
12625;SDS011;6378;42.684;23.372;2023-03-14T02:40:02;14.60;;;9.23;;
12625;SDS011;6378;42.684;23.372;2023-03-14T02:42:29;11.97;;;8.27;;
12625;SDS011;6378;42.684;23.372;2023-03-14T02:44:59;12.50;;;8.33;;
12625;SDS011;6378;42.684;23.372;2023-03-14T02:47:51;11.97;;;8.07;;
12625;SDS011;6378;42.684;23.372;2023-03-14T02:50:25;12.20;;;8.83;;
12625;SDS011;6378;42.684;23.372;2023-03-14T02:52:54;14.73;;;9.33;;
12625;SDS011;6378;42.684;23.372;2023-03-14T02:55:23;15.47;;;9.47;;
12625;SDS011;6378;42.684;23.372;2023-03-14T02:57:51;19.13;;;10.63;;
12625;SDS011;6378;42.684;23.372;2023-03-14T03:00:17;14.97;;;9.33;;
12625;SDS011;6378;42.684;23.372;2023-03-14T03:02:42;16.07;;;9.03;;
12625;SDS011;6378;42.684;23.372;2023-03-14T03:05:08;11.40;;;7.70;;
12625;SDS011;6378;42.684;23.372;2023-03-14T03:07:33;12.27;;;8.67;;
12625;SDS011;6378;42.684;23.372;2023-03-14T03:09:59;12.93;;;8.37;;
12625;SDS011;6378;42.684;23.372;2023-03-14T03:12:24;13.60;;;8.37;;
12625;SDS011;6378;42.684;23.372;2023-03-14T03:14:50;11.57;;;8.73;;
12625;SDS011;6378;42.684;23.372;2023-03-14T03:17:15;12.83;;;8.07;;
12625;SDS011;6378;42.684;23.372;2023-03-14T03:19:42;13.23;;;9.33;;
12625;SDS011;6378;42.684;23.372;2023-03-14T03:22:07;16.83;;;9.47;;
12625;SDS011;6378;42.684;23.372;2023-03-14T03:24:33;16.03;;;10.27;;
12625;SDS011;6378;42.684;23.372;2023-03-14T03:26:58;17.60;;;10.63;;
12625;SDS011;6378;42.684;23.372;2023-03-14T03:29:24;13.87;;;10.10;;
12625;SDS011;6378;42.684;23.372;2023-03-14T03:31:49;15.57;;;10.20;;
12625;SDS011;6378;42.684;23.372;2023-03-14T03:34:14;16.57;;;9.93;;
12625;SDS011;6378;42.684;23.372;2023-03-14T03:36:40;14.70;;;10.17;;
12625;SDS011;6378;42.684;23.372;2023-03-14T03:39:06;16.10;;;10.30;;
12625;SDS011;6378;42.684;23.372;2023-03-14T03:41:32;13.83;;;9.87;;
12625;SDS011;6378;42.684;23.372;2023-03-14T03:43:58;15.73;;;9.93;;
12625;SDS011;6378;42.684;23.372;2023-03-14T03:46:23;15.90;;;10.07;;
12625;SDS011;6378;42.684;23.372;2023-03-14T03:48:53;15.43;;;9.97;;
12625;SDS011;6378;42.684;23.372;2023-03-14T03:51:20;16.67;;;9.43;;
12625;SDS011;6378;42.684;23.372;2023-03-14T03:53:45;16.63;;;9.83;;
12625;SDS011;6378;42.684;23.372;2023-03-14T03:56:10;16.80;;;10.33;;
12625;SDS011;6378;42.684;23.372;2023-03-14T03:58:36;12.50;;;8.67;;
12625;SDS011;6378;42.684;23.372;2023-03-14T04:01:03;13.07;;;8.87;;
12625;SDS011;6378;42.684;23.372;2023-03-14T04:03:29;15.53;;;9.47;;
12625;SDS011;6378;42.684;23.372;2023-03-14T04:06:02;18.37;;;10.87;;
12625;SDS011;6378;42.684;23.372;2023-03-14T04:08:30;20.43;;;12.23;;
12625;SDS011;6378;42.684;23.372;2023-03-14T04:10:59;15.57;;;10.80;;
12625;SDS011;6378;42.684;23.372;2023-03-14T04:13:26;19.80;;;11.20;;
12625;SDS011;6378;42.684;23.372;2023-03-14T04:15:53;21.67;;;11.87;;
12625;SDS011;6378;42.684;23.372;2023-03-14T04:18:19;17.50;;;12.43;;
12625;SDS011;6378;42.684;23.372;2023-03-14T04:20:45;19.87;;;11.80;;
12625;SDS011;6378;42.684;23.372;2023-03-14T04:23:10;20.47;;;12.30;;
12625;SDS011;6378;42.684;23.372;2023-03-14T04:25:36;28.63;;;13.17;;
12625;SDS011;6378;42.684;23.372;2023-03-14T04:28:01;23.03;;;13.00;;
12625;SDS011;6378;42.684;23.372;2023-03-14T04:30:29;22.80;;;13.67;;
12625;SDS011;6378;42.684;23.372;2023-03-14T04:32:54;19.10;;;12.43;;
12625;SDS011;6378;42.684;23.372;2023-03-14T04:35:20;22.70;;;12.50;;
12625;SDS011;6378;42.684;23.372;2023-03-14T04:37:45;21.33;;;12.20;;
12625;SDS011;6378;42.684;23.372;2023-03-14T04:40:14;24.10;;;13.03;;
12625;SDS011;6378;42.684;23.372;2023-03-14T04:42:40;22.73;;;13.47;;
12625;SDS011;6378;42.684;23.372;2023-03-14T04:45:06;25.90;;;13.63;;
12625;SDS011;6378;42.684;23.372;2023-03-14T04:47:32;23.30;;;13.47;;
12625;SDS011;6378;42.684;23.372;2023-03-14T04:49:57;22.13;;;13.17;;
12625;SDS011;6378;42.684;23.372;2023-03-14T04:52:23;21.43;;;13.73;;
12625;SDS011;6378;42.684;23.372;2023-03-14T04:54:48;25.37;;;12.87;;
12625;SDS011;6378;42.684;23.372;2023-03-14T04:57:14;22.30;;;13.77;;
12625;SDS011;6378;42.684;23.372;2023-03-14T04:59:39;24.07;;;14.13;;
12625;SDS011;6378;42.684;23.372;2023-03-14T05:02:04;24.10;;;15.00;;
12625;SDS011;6378;42.684;23.372;2023-03-14T05:04:30;32.73;;;20.30;;
12625;SDS011;6378;42.684;23.372;2023-03-14T05:06:57;31.57;;;17.53;;
12625;SDS011;6378;42.684;23.372;2023-03-14T05:09:23;39.17;;;22.70;;
12625;SDS011;6378;42.684;23.372;2023-03-14T05:11:48;44.67;;;26.27;;
12625;SDS011;6378;42.684;23.372;2023-03-14T05:14:14;41.53;;;24.97;;
12625;SDS011;6378;42.684;23.372;2023-03-14T05:16:39;44.10;;;25.17;;
12625;SDS011;6378;42.684;23.372;2023-03-14T05:19:05;49.10;;;25.80;;
12625;SDS011;6378;42.684;23.372;2023-03-14T05:21:30;48.37;;;25.70;;
12625;SDS011;6378;42.684;23.372;2023-03-14T05:23:55;56.03;;;27.83;;
12625;SDS011;6378;42.684;23.372;2023-03-14T05:26:21;42.70;;;25.33;;
12625;SDS011;6378;42.684;23.372;2023-03-14T05:28:46;42.53;;;27.00;;
12625;SDS011;6378;42.684;23.372;2023-03-14T05:31:12;46.53;;;29.47;;
12625;SDS011;6378;42.684;23.372;2023-03-14T05:33:37;44.40;;;28.77;;
12625;SDS011;6378;42.684;23.372;2023-03-14T05:36:03;50.67;;;30.37;;
12625;SDS011;6378;42.684;23.372;2023-03-14T05:38:28;41.23;;;28.70;;
12625;SDS011;6378;42.684;23.372;2023-03-14T05:40:54;40.50;;;27.07;;
12625;SDS011;6378;42.684;23.372;2023-03-14T05:43:19;64.20;;;38.10;;
12625;SDS011;6378;42.684;23.372;2023-03-14T05:45:44;76.87;;;45.37;;
12625;SDS011;6378;42.684;23.372;2023-03-14T05:48:10;67.47;;;40.20;;
12625;SDS011;6378;42.684;23.372;2023-03-14T05:50:35;55.17;;;35.77;;
12625;SDS011;6378;42.684;23.372;2023-03-14T05:53:01;53.07;;;32.83;;
12625;SDS011;6378;42.684;23.372;2023-03-14T05:55:26;43.83;;;29.80;;
12625;SDS011;6378;42.684;23.372;2023-03-14T05:57:52;42.40;;;23.83;;
12625;SDS011;6378;42.684;23.372;2023-03-14T06:00:19;41.40;;;25.63;;
12625;SDS011;6378;42.684;23.372;2023-03-14T06:02:44;42.97;;;25.07;;
12625;SDS011;6378;42.684;23.372;2023-03-14T06:05:10;38.43;;;24.83;;
12625;SDS011;6378;42.684;23.372;2023-03-14T06:07:35;35.23;;;23.47;;
12625;SDS011;6378;42.684;23.372;2023-03-14T06:10:01;33.77;;;22.53;;
12625;SDS011;6378;42.684;23.372;2023-03-14T06:12:26;28.80;;;19.17;;
12625;SDS011;6378;42.684;23.372;2023-03-14T06:14:52;33.23;;;17.87;;
12625;SDS011;6378;42.684;23.372;2023-03-14T06:17:17;28.20;;;18.40;;
12625;SDS011;6378;42.684;23.372;2023-03-14T06:19:42;31.87;;;19.20;;
12625;SDS011;6378;42.684;23.372;2023-03-14T06:22:08;27.93;;;19.17;;
12625;SDS011;6378;42.684;23.372;2023-03-14T06:24:33;25.17;;;18.33;;
12625;SDS011;6378;42.684;23.372;2023-03-14T06:26:59;28.07;;;19.60;;
12625;SDS011;6378;42.684;23.372;2023-03-14T06:29:24;28.90;;;20.60;;
12625;SDS011;6378;42.684;23.372;2023-03-14T06:31:50;30.50;;;19.40;;
12625;SDS011;6378;42.684;23.372;2023-03-14T06:34:15;30.33;;;20.53;;
12625;SDS011;6378;42.684;23.372;2023-03-14T06:36:40;29.80;;;19.90;;
12625;SDS011;6378;42.684;23.372;2023-03-14T06:39:06;28.70;;;19.00;;
12625;SDS011;6378;42.684;23.372;2023-03-14T06:41:31;35.30;;;20.23;;
12625;SDS011;6378;42.684;23.372;2023-03-14T06:43:57;26.63;;;20.27;;
12625;SDS011;6378;42.684;23.372;2023-03-14T06:46:23;26.88;;;19.92;;
12625;SDS011;6378;42.684;23.372;2023-03-14T06:48:48;24.40;;;17.73;;
12625;SDS011;6378;42.684;23.372;2023-03-14T06:51:14;27.58;;;19.20;;
12625;SDS011;6378;42.684;23.372;2023-03-14T06:53:39;31.13;;;20.03;;
12625;SDS011;6378;42.684;23.372;2023-03-14T06:56:05;28.42;;;16.83;;
12625;SDS011;6378;42.684;23.372;2023-03-14T06:58:31;25.10;;;17.52;;
12625;SDS011;6378;42.684;23.372;2023-03-14T07:00:56;27.95;;;16.63;;
12625;SDS011;6378;42.684;23.372;2023-03-14T07:03:22;25.73;;;18.30;;
12625;SDS011;6378;42.684;23.372;2023-03-14T07:05:47;36.33;;;20.73;;
12625;SDS011;6378;42.684;23.372;2023-03-14T07:08:13;23.97;;;18.27;;
12625;SDS011;6378;42.684;23.372;2023-03-14T07:10:39;28.23;;;17.33;;
12625;SDS011;6378;42.684;23.372;2023-03-14T07:13:04;21.83;;;16.23;;
12625;SDS011;6378;42.684;23.372;2023-03-14T07:15:29;22.00;;;13.30;;
12625;SDS011;6378;42.684;23.372;2023-03-14T07:17:55;21.97;;;15.50;;
12625;SDS011;6378;42.684;23.372;2023-03-14T07:20:21;20.13;;;14.10;;
12625;SDS011;6378;42.684;23.372;2023-03-14T07:22:47;17.13;;;12.80;;
12625;SDS011;6378;42.684;23.372;2023-03-14T07:25:14;18.17;;;12.10;;
12625;SDS011;6378;42.684;23.372;2023-03-14T07:27:39;16.13;;;11.40;;
12625;SDS011;6378;42.684;23.372;2023-03-14T07:30:05;15.03;;;11.50;;
12625;SDS011;6378;42.684;23.372;2023-03-14T07:32:31;13.30;;;11.60;;
12625;SDS011;6378;42.684;23.372;2023-03-14T07:34:56;16.80;;;12.47;;
12625;SDS011;6378;42.684;23.372;2023-03-14T07:37:22;17.80;;;11.50;;
12625;SDS011;6378;42.684;23.372;2023-03-14T07:39:47;13.43;;;10.53;;
12625;SDS011;6378;42.684;23.372;2023-03-14T07:42:13;17.23;;;11.97;;
12625;SDS011;6378;42.684;23.372;2023-03-14T07:44:38;18.87;;;11.60;;
12625;SDS011;6378;42.684;23.372;2023-03-14T07:47:03;15.23;;;11.03;;
12625;SDS011;6378;42.684;23.372;2023-03-14T07:49:29;16.60;;;11.33;;
12625;SDS011;6378;42.684;23.372;2023-03-14T07:51:54;16.07;;;11.53;;
12625;SDS011;6378;42.684;23.372;2023-03-14T07:54:20;15.23;;;10.90;;
12625;SDS011;6378;42.684;23.372;2023-03-14T07:56:45;18.03;;;10.80;;
12625;SDS011;6378;42.684;23.372;2023-03-14T07:59:10;14.90;;;10.37;;
12625;SDS011;6378;42.684;23.372;2023-03-14T08:01:37;15.63;;;11.53;;
12625;SDS011;6378;42.684;23.372;2023-03-14T08:04:02;14.53;;;11.30;;
12625;SDS011;6378;42.684;23.372;2023-03-14T08:06:28;16.35;;;12.48;;
12625;SDS011;6378;42.684;23.372;2023-03-14T08:08:53;15.80;;;11.25;;
12625;SDS011;6378;42.684;23.372;2023-03-14T08:11:19;16.13;;;10.88;;
12625;SDS011;6378;42.684;23.372;2023-03-14T08:13:44;12.93;;;9.60;;
12625;SDS011;6378;42.684;23.372;2023-03-14T08:16:15;16.93;;;11.90;;
12625;SDS011;6378;42.684;23.372;2023-03-14T08:18:42;17.60;;;10.77;;
12625;SDS011;6378;42.684;23.372;2023-03-14T08:21:08;12.63;;;9.53;;
12625;SDS011;6378;42.684;23.372;2023-03-14T08:23:33;13.03;;;10.07;;
12625;SDS011;6378;42.684;23.372;2023-03-14T08:25:58;13.32;;;9.90;;
12625;SDS011;6378;42.684;23.372;2023-03-14T08:28:24;14.10;;;9.90;;
12625;SDS011;6378;42.684;23.372;2023-03-14T08:30:55;14.55;;;10.68;;
12625;SDS011;6378;42.684;23.372;2023-03-14T08:33:21;13.52;;;9.00;;
12625;SDS011;6378;42.684;23.372;2023-03-14T08:35:47;12.05;;;9.50;;
12625;SDS011;6378;42.684;23.372;2023-03-14T08:38:12;12.27;;;9.63;;
12625;SDS011;6378;42.684;23.372;2023-03-14T08:40:37;11.90;;;9.00;;
12625;SDS011;6378;42.684;23.372;2023-03-14T08:43:03;11.82;;;8.73;;
12625;SDS011;6378;42.684;23.372;2023-03-14T08:45:28;10.02;;;8.38;;
12625;SDS011;6378;42.684;23.372;2023-03-14T08:47:54;12.85;;;9.02;;
12625;SDS011;6378;42.684;23.372;2023-03-14T08:50:19;12.23;;;8.27;;
12625;SDS011;6378;42.684;23.372;2023-03-14T08:52:45;15.32;;;9.23;;
12625;SDS011;6378;42.684;23.372;2023-03-14T08:55:11;11.30;;;7.10;;
12625;SDS011;6378;42.684;23.372;2023-03-14T08:57:36;11.63;;;7.75;;
12625;SDS011;6378;42.684;23.372;2023-03-14T09:00:02;11.20;;;8.07;;
12625;SDS011;6378;42.684;23.372;2023-03-14T09:02:33;15.38;;;10.57;;
12625;SDS011;6378;42.684;23.372;2023-03-14T09:04:59;11.57;;;8.95;;
12625;SDS011;6378;42.684;23.372;2023-03-14T09:07:24;11.60;;;7.55;;
12625;SDS011;6378;42.684;23.372;2023-03-14T09:09:50;13.02;;;7.55;;
12625;SDS011;6378;42.684;23.372;2023-03-14T09:12:15;12.55;;;8.15;;
12625;SDS011;6378;42.684;23.372;2023-03-14T09:14:40;14.65;;;8.85;;
12625;SDS011;6378;42.684;23.372;2023-03-14T09:17:06;10.70;;;7.47;;
12625;SDS011;6378;42.684;23.372;2023-03-14T09:19:32;9.20;;;7.50;;
12625;SDS011;6378;42.684;23.372;2023-03-14T09:21:58;11.10;;;7.18;;
12625;SDS011;6378;42.684;23.372;2023-03-14T09:24:23;9.27;;;6.47;;
12625;SDS011;6378;42.684;23.372;2023-03-14T09:26:48;11.77;;;6.97;;
12625;SDS011;6378;42.684;23.372;2023-03-14T09:29:14;12.20;;;7.22;;
12625;SDS011;6378;42.684;23.372;2023-03-14T09:31:39;10.05;;;6.82;;
12625;SDS011;6378;42.684;23.372;2023-03-14T09:34:05;10.90;;;7.80;;
12625;SDS011;6378;42.684;23.372;2023-03-14T09:36:30;14.80;;;7.57;;
12625;SDS011;6378;42.684;23.372;2023-03-14T09:38:56;11.68;;;8.02;;
12625;SDS011;6378;42.684;23.372;2023-03-14T09:41:28;10.15;;;8.07;;
12625;SDS011;6378;42.684;23.372;2023-03-14T09:46:31;12.70;;;8.63;;
12625;SDS011;6378;42.684;23.372;2023-03-14T09:49:00;11.98;;;8.95;;
12625;SDS011;6378;42.684;23.372;2023-03-14T09:51:26;11.95;;;9.18;;
12625;SDS011;6378;42.684;23.372;2023-03-14T09:53:52;11.20;;;8.23;;
12625;SDS011;6378;42.684;23.372;2023-03-14T09:56:28;9.48;;;7.30;;
12625;SDS011;6378;42.684;23.372;2023-03-14T09:58:58;10.57;;;7.97;;
12625;SDS011;6378;42.684;23.372;2023-03-14T10:01:28;11.52;;;8.18;;
12625;SDS011;6378;42.684;23.372;2023-03-14T10:03:56;12.80;;;8.52;;
12625;SDS011;6378;42.684;23.372;2023-03-14T10:06:26;15.32;;;8.52;;
12625;SDS011;6378;42.684;23.372;2023-03-14T10:08:54;12.07;;;8.52;;
12625;SDS011;6378;42.684;23.372;2023-03-14T10:11:21;12.60;;;7.72;;
12625;SDS011;6378;42.684;23.372;2023-03-14T10:14:02;10.55;;;8.05;;
12625;SDS011;6378;42.684;23.372;2023-03-14T10:16:41;12.18;;;7.38;;
12625;SDS011;6378;42.684;23.372;2023-03-14T10:19:11;8.18;;;5.90;;
12625;SDS011;6378;42.684;23.372;2023-03-14T10:21:39;9.55;;;5.80;;
12625;SDS011;6378;42.684;23.372;2023-03-14T10:24:08;8.35;;;6.15;;
12625;SDS011;6378;42.684;23.372;2023-03-14T10:30:03;8.63;;;6.18;;
12625;SDS011;6378;42.684;23.372;2023-03-14T10:35:04;6.10;;;4.97;;
12625;SDS011;6378;42.684;23.372;2023-03-14T10:38:00;7.38;;;5.07;;
12625;SDS011;6378;42.684;23.372;2023-03-14T10:40:36;6.38;;;5.47;;
12625;SDS011;6378;42.684;23.372;2023-03-14T10:43:05;7.82;;;5.55;;
12625;SDS011;6378;42.684;23.372;2023-03-14T10:45:38;8.25;;;5.15;;
12625;SDS011;6378;42.684;23.372;2023-03-14T10:56:06;7.75;;;5.57;;
12625;SDS011;6378;42.684;23.372;2023-03-14T10:58:33;5.65;;;4.68;;
12625;SDS011;6378;42.684;23.372;2023-03-14T11:03:40;5.78;;;3.63;;
12625;SDS011;6378;42.684;23.372;2023-03-14T11:06:13;6.07;;;3.90;;
12625;SDS011;6378;42.684;23.372;2023-03-14T11:08:54;5.85;;;4.20;;
12625;SDS011;6378;42.684;23.372;2023-03-14T11:11:29;5.47;;;4.68;;
12625;SDS011;6378;42.684;23.372;2023-03-14T11:13:59;9.15;;;5.15;;
12625;SDS011;6378;42.684;23.372;2023-03-14T11:25:06;6.90;;;4.60;;
12625;SDS011;6378;42.684;23.372;2023-03-14T11:30:15;7.65;;;4.20;;
12625;SDS011;6378;42.684;23.372;2023-03-14T11:38:37;5.20;;;3.85;;
12625;SDS011;6378;42.684;23.372;2023-03-14T11:44:04;7.93;;;4.05;;
12625;SDS011;6378;42.684;23.372;2023-03-14T11:46:55;5.38;;;4.70;;
12625;SDS011;6378;42.684;23.372;2023-03-14T11:49:50;5.15;;;4.30;;
12625;SDS011;6378;42.684;23.372;2023-03-14T12:08:44;3.00;;;2.80;;
12625;SDS011;6378;42.684;23.372;2023-03-14T12:11:59;4.72;;;3.40;;
12625;SDS011;6378;42.684;23.372;2023-03-14T12:18:21;3.38;;;2.92;;
12625;SDS011;6378;42.684;23.372;2023-03-14T12:21:00;6.65;;;3.40;;
12625;SDS011;6378;42.684;23.372;2023-03-14T12:23:34;5.13;;;3.05;;
12625;SDS011;6378;42.684;23.372;2023-03-14T12:29:15;6.55;;;3.25;;
12625;SDS011;6378;42.684;23.372;2023-03-14T12:31:42;4.28;;;2.80;;
12625;SDS011;6378;42.684;23.372;2023-03-14T12:44:38;4.03;;;3.10;;
12625;SDS011;6378;42.684;23.372;2023-03-14T12:49:43;3.15;;;2.63;;
12625;SDS011;6378;42.684;23.372;2023-03-14T12:52:14;3.85;;;2.90;;
12625;SDS011;6378;42.684;23.372;2023-03-14T12:55:04;4.53;;;2.50;;
12625;SDS011;6378;42.684;23.372;2023-03-14T12:57:59;3.63;;;2.75;;
12625;SDS011;6378;42.684;23.372;2023-03-14T13:03:43;6.07;;;2.90;;
12625;SDS011;6378;42.684;23.372;2023-03-14T13:06:12;3.58;;;2.92;;
12625;SDS011;6378;42.684;23.372;2023-03-14T13:08:44;7.75;;;3.22;;
12625;SDS011;6378;42.684;23.372;2023-03-14T13:11:41;3.80;;;2.88;;
12625;SDS011;6378;42.684;23.372;2023-03-14T13:14:08;4.75;;;3.80;;
12625;SDS011;6378;42.684;23.372;2023-03-14T13:16:35;3.08;;;2.60;;
12625;SDS011;6378;42.684;23.372;2023-03-14T13:19:11;2.88;;;2.55;;
12625;SDS011;6378;42.684;23.372;2023-03-14T13:21:43;3.50;;;2.40;;
12625;SDS011;6378;42.684;23.372;2023-03-14T13:27:04;4.80;;;3.55;;
12625;SDS011;6378;42.684;23.372;2023-03-14T13:29:30;4.47;;;2.40;;
12625;SDS011;6378;42.684;23.372;2023-03-14T13:32:01;3.17;;;2.40;;
12625;SDS011;6378;42.684;23.372;2023-03-14T13:34:38;4.45;;;3.55;;
12625;SDS011;6378;42.684;23.372;2023-03-14T13:37:03;3.25;;;2.80;;
12625;SDS011;6378;42.684;23.372;2023-03-14T13:39:29;3.60;;;2.83;;
12625;SDS011;6378;42.684;23.372;2023-03-14T13:41:57;4.35;;;3.00;;
12625;SDS011;6378;42.684;23.372;2023-03-14T13:46:58;3.05;;;2.50;;
12625;SDS011;6378;42.684;23.372;2023-03-14T13:49:26;5.68;;;2.95;;
12625;SDS011;6378;42.684;23.372;2023-03-14T13:51:54;2.88;;;2.58;;
12625;SDS011;6378;42.684;23.372;2023-03-14T13:54:20;4.78;;;2.63;;
12625;SDS011;6378;42.684;23.372;2023-03-14T13:56:47;4.00;;;3.03;;
12625;SDS011;6378;42.684;23.372;2023-03-14T13:59:26;6.40;;;4.28;;
12625;SDS011;6378;42.684;23.372;2023-03-14T14:01:56;5.13;;;4.15;;
12625;SDS011;6378;42.684;23.372;2023-03-14T14:04:25;2.97;;;2.70;;
12625;SDS011;6378;42.684;23.372;2023-03-14T14:07:01;4.72;;;3.30;;
12625;SDS011;6378;42.684;23.372;2023-03-14T14:09:38;6.82;;;3.97;;
12625;SDS011;6378;42.684;23.372;2023-03-14T14:12:16;3.72;;;2.97;;
12625;SDS011;6378;42.684;23.372;2023-03-14T14:17:41;4.07;;;2.97;;
12625;SDS011;6378;42.684;23.372;2023-03-14T14:20:15;4.07;;;2.72;;
12625;SDS011;6378;42.684;23.372;2023-03-14T14:22:46;3.35;;;2.75;;
12625;SDS011;6378;42.684;23.372;2023-03-14T14:25:13;4.05;;;2.92;;
12625;SDS011;6378;42.684;23.372;2023-03-14T14:27:41;7.72;;;2.85;;
12625;SDS011;6378;42.684;23.372;2023-03-14T14:32:44;3.33;;;2.75;;
12625;SDS011;6378;42.684;23.372;2023-03-14T14:35:22;4.07;;;2.92;;
12625;SDS011;6378;42.684;23.372;2023-03-14T14:37:58;2.67;;;2.20;;
12625;SDS011;6378;42.684;23.372;2023-03-14T14:40:25;3.83;;;2.88;;
12625;SDS011;6378;42.684;23.372;2023-03-14T14:42:52;4.05;;;2.42;;
12625;SDS011;6378;42.684;23.372;2023-03-14T14:45:19;2.63;;;2.40;;
12625;SDS011;6378;42.684;23.372;2023-03-14T14:48:02;6.07;;;2.40;;
12625;SDS011;6378;42.684;23.372;2023-03-14T14:50:36;4.40;;;2.40;;
12625;SDS011;6378;42.684;23.372;2023-03-14T14:53:19;4.85;;;2.33;;
12625;SDS011;6378;42.684;23.372;2023-03-14T14:55:52;3.85;;;2.35;;
12625;SDS011;6378;42.684;23.372;2023-03-14T15:01:10;2.97;;;2.60;;
12625;SDS011;6378;42.684;23.372;2023-03-14T15:03:41;3.28;;;2.60;;
12625;SDS011;6378;42.684;23.372;2023-03-14T15:06:08;3.55;;;2.53;;
12625;SDS011;6378;42.684;23.372;2023-03-14T15:08:35;3.92;;;3.25;;
12625;SDS011;6378;42.684;23.372;2023-03-14T15:11:02;3.70;;;3.10;;
12625;SDS011;6378;42.684;23.372;2023-03-14T15:13:28;5.13;;;3.08;;
12625;SDS011;6378;42.684;23.372;2023-03-14T15:15:53;3.38;;;2.55;;
12625;SDS011;6378;42.684;23.372;2023-03-14T15:18:20;4.43;;;3.00;;
12625;SDS011;6378;42.684;23.372;2023-03-14T15:20:47;3.95;;;2.53;;
12625;SDS011;6378;42.684;23.372;2023-03-14T15:23:14;5.82;;;3.25;;
12625;SDS011;6378;42.684;23.372;2023-03-14T15:25:40;3.58;;;2.85;;
12625;SDS011;6378;42.684;23.372;2023-03-14T15:28:11;4.30;;;2.70;;
12625;SDS011;6378;42.684;23.372;2023-03-14T15:30:59;3.45;;;3.08;;
12625;SDS011;6378;42.684;23.372;2023-03-14T15:33:25;7.03;;;3.65;;
12625;SDS011;6378;42.684;23.372;2023-03-14T15:35:51;2.75;;;2.50;;
12625;SDS011;6378;42.684;23.372;2023-03-14T15:38:18;4.57;;;3.20;;
12625;SDS011;6378;42.684;23.372;2023-03-14T15:40:47;4.65;;;2.92;;
12625;SDS011;6378;42.684;23.372;2023-03-14T15:43:13;4.22;;;2.97;;
12625;SDS011;6378;42.684;23.372;2023-03-14T15:45:39;5.43;;;2.90;;
12625;SDS011;6378;42.684;23.372;2023-03-14T15:48:06;4.93;;;3.17;;
12625;SDS011;6378;42.684;23.372;2023-03-14T15:50:37;5.07;;;3.50;;
12625;SDS011;6378;42.684;23.372;2023-03-14T15:53:02;4.63;;;3.20;;
12625;SDS011;6378;42.684;23.372;2023-03-14T15:55:27;4.63;;;3.40;;
12625;SDS011;6378;42.684;23.372;2023-03-14T15:57:53;6.05;;;3.53;;
12625;SDS011;6378;42.684;23.372;2023-03-14T16:00:19;4.05;;;3.45;;
12625;SDS011;6378;42.684;23.372;2023-03-14T16:02:46;6.50;;;3.97;;
12625;SDS011;6378;42.684;23.372;2023-03-14T16:05:12;4.32;;;3.65;;
12625;SDS011;6378;42.684;23.372;2023-03-14T16:07:38;4.32;;;3.35;;
12625;SDS011;6378;42.684;23.372;2023-03-14T16:10:04;4.90;;;3.20;;
12625;SDS011;6378;42.684;23.372;2023-03-14T16:12:32;7.47;;;4.13;;
12625;SDS011;6378;42.684;23.372;2023-03-14T16:14:58;5.55;;;3.47;;
12625;SDS011;6378;42.684;23.372;2023-03-14T16:17:23;4.82;;;3.55;;